AirNav  
 
 321 users online  

3A4 Southeast Greensboro Airport
Greensboro, North Carolina, USA

GOING TO GREENSBORO?


FAA INFORMATION EFFECTIVE 07 DECEMBER 2017

Location

FAA Identifier: 3A4
Lat/Long: 35-56-31.0000N / 079-41-07.8000W
35-56.516667N / 079-41.130000W
35.9419444 / -79.6855000
(estimated)
Elevation: 739 ft. / 225 m (estimated)
Variation: 06W (1985)
From city: 8 miles SE of GREENSBORO, NC
Time zone: UTC -5 (UTC -4 during Daylight Saving Time)
Zip code: 27233

Airport Operations

Airport use: Open to the public
Activation date: 07/1979
Control tower: no
ARTCC: ATLANTA CENTER
FSS: RALEIGH FLIGHT SERVICE STATION
NOTAMs facility: RDU (NOTAM-D service available)
Attendance: 0700 TO 1700
Wind indicator: lighted
Segmented circle: no
Lights: SS-SR

Airport Communications

CTAF/UNICOM: 122.8
WX ASOS at BUY (12 nm NE): 135.325 (336-570-9813)
WX ASOS at GSO (16 nm NW): PHONE 336-393-0168
WX AWOS-3 at SCR (17 nm SE): 125.775 (919-663-1252)

Nearby radio navigation aids

VOR radial/distance  VOR name  Freq  Var
LIBr339/8.6LIBERTY VORTAC113.0003W
GSOr117/15.4GREENSBORO VORTAC116.2003W

 
NDB name  Hdg/Dist  Freq  Var  ID
ALAMM254/5.336108WHB .... -...
SLAMMER179/26.642307WSIF ... .. ..-.
PERSON248/34.822008WHUR .... ..- .-.

Airport Services

Parking: tiedowns
Airframe service: MAJOR
Powerplant service: MAJOR
Bottled oxygen: NONE
Bulk oxygen: NONE

Runway Information

Runway 17/35

Dimensions: 3063 x 30 ft. / 934 x 9 m
Surface: asphalt, in good condition
Weight bearing capacity: 
Single wheel: 8.0
Runway edge lights: medium intensity
MIRLS SS-SR; ONLY TWO END LIGHTS EACH SIDE. AIRPORT LIGHTING OTS INDEFINITELY.
Runway edge markings: RY NUMBERS SMALLER THAN STANDARD.
RUNWAY 17  RUNWAY 35
Latitude: 35-56.759885N35-56.273913N
Longitude: 079-41.214925W079-41.046195W
Elevation: 672.0 ft.739.0 ft.
Gradient: 2.2% UP2.0%
Traffic pattern: leftleft
Runway heading: 170 magnetic, 164 true350 magnetic, 344 true
Markings: NSTD, in good conditionNSTD, in good condition
Obstructions: 44 ft. trees, 480 ft. from runway, 103 ft. right of centerline, 6:1 slope to clear
HAS 41 FT TREES 0-100 FT FM THLD, OFFSET 50 FT LEFT OF CNTRLN.
50 ft. trees, 200 ft. from runway
NMRS 50 FT TREES 100-200 FT FM THLD BOTH SIDES OF CNTRLN.

Airport Ownership and Management from official FAA records

Ownership: Privately-owned
Owner: JENNIFER WARD AND ANDREW WILLIAMS
6328 MONNETT RD
CLIMAX, NC 27233-0007
Phone (336) 215-9056
Manager: EDWARD RUCINSKI
5816 LIBERTY ROAD
CLIMAX, NC 27233-8088
Phone 336-674-9999
FAX NR- 336-674-9943

Airport Operational Statistics

Aircraft based on the field: 40
Single engine airplanes: 38
Multi engine airplanes: 2
    
Aircraft operations: avg 105/week *
55% local general aviation
36% transient general aviation
9% military
* for 12-month period ending 29 April 2016

Additional Remarks

RWY 17 UPHILL LNDG PREFERRED.
NMRS +40' TREES IN THE APCHS & ALONG THE SIDES OF THE RY; NMRS +15' TREES IN THE PRIM SFC.
SERVICE AFTER HOURS AND EMERG CTC NR 336-420-5676.
RWY 17 HAS 50 FT DROP OFF 60 FT FROM RWY END OFFSET 30 FT RIGHT OF CENTERLINE

Instrument Procedures

There are no published instrument procedures at 3A4.

Some nearby airports with instrument procedures:

2A5 - Causey Airport (4 nm SE)
KBUY - Burlington-Alamance Regional Airport (12 nm NE)
KGSO - Piedmont Triad International Airport (16 nm NW)
KSCR - Siler City Municipal Airport (17 nm SE)
KHBI - Asheboro Regional Airport (20 nm SW)
 
Loc | Ops | Rwys | IFR | FBO | Links
Com | Nav | Svcs | Stats | Notes


 
Area around 3A4 (Southeast Greensboro Airport)
 
Road maps at: MapQuest Bing Google
 
Aerial photo
WARNING: Photo may not be current or correct
Aerial photo of 3A4 (Southeast Greensboro Airport)
Photo by Michael Eversole
Photo taken 07-Feb-2015
from 3,500 ft looking north.

Do you have a better or more recent aerial photo of Southeast Greensboro Airport that you would like to share? If so, please send us your photo.

 
Sectional chart

 
Airport distance calculator
Flying to Southeast Greensboro Airport? Find the distance to fly.

From to 3A4

Sunrise and sunset
Times for 17-Dec-2017
 Local
(UTC-5)
 Zulu
(UTC)
Morning civil twilight06:5611:56
Sunrise07:2412:24
Sunset17:0622:06
Evening civil twilight17:3422:34

Current date and time
Zulu (UTC)  17-Dec-2017 08:21:39
Local (UTC-5)  17-Dec-2017 03:21:39
 
METAR
KBUY 
12nm NE 
170754Z AUTO 00000KT 10SM CLR M03/M05 A3025 RMK AO2 SLP246 T10281050
KGSO 
16nm NW 
170754Z 00000KT 10SM SCT250 01/M04 A3024 RMK AO2 SLP244 T00061044
KSCR 
17nm SE 
170800Z AUTO 00000KT 10SM CLR M04/M05 A3026 RMK AO2 T10381055
KHBI 
20nm SW 
170800Z AUTO 00000KT 10SM CLR M02/M04 A3028 RMK AO2 T10171042
TAF
KGSO 
16nm NW 
170520Z 1706/1806 00000KT P6SM FEW250 FM171800 22006KT P6SM BKN100 FM180200 22002KT P6SM OVC035
NOTAMs
Click for the latest NOTAMs
NOTAMs are issued by the DoD/FAA and will open in a separate window not controlled by AirNav.

 

 
 

Would you like to see your business listed on this page?

 If your business provides an interesting product or service to pilots, flight crews, aircraft, or users of the Southeast Greensboro Airport, you should consider listing it here.  To start the listing process, click on the button below
 
Add a business
 

Other Pages about Southeast Greensboro Airport

Update a link
 
Copyright © AirNav, LLC. All rights reserved. Privacy Policy  Contact